Terminal Aerodrome Forecast
Issued by NWS

Home | Current Version | Previous Version | Graphics & Text | Print | Product List | Glossary On
Versions: 1 2 3 4 5 6 7 8 9 10 11 12 13 14 15 16 17
970
FTUS43 KBIS 141014 AAA
TAFMOT
TAF AMD
KMOT 141014Z 1410/1506 01009KT 1SM BR SCT005
      TEMPO 1411/1413 3SM BR BKN005
     FM141300 36008KT 6SM BR OVC005
     FM141700 35010KT P6SM FEW008 SCT140
     FM142200 32012KT P6SM FEW045 FEW250
     FM150000 30006KT P6SM FEW060 FEW250
     FM150200 24005KT P6SM SKC=

USA.gov is the U.S. government's official web portal to all federal, state and local government web resources and services.